Time;durP1;ratioP1;P1;durP2;ratioP2;P2;SDS_P1;SDS_P2;PMS_P1;PMS_P2;Temp;Humidity;BMP_temperature;BMP_pressure;BME280_temperature;BME280_humidity;BME280_pressure;Samples;Min_cycle;Max_cycle;Signal;HPM_P1;HPM_P2
2021/06/08 00:00:30;;;;;;;9.30;4.93;;;;;;;;;;10339808;28;20143;-61
2021/06/08 00:05:27;;;;;;;10.23;5.17;;;;;;;;;;10340541;28;20045;-61
2021/06/08 00:10:25;;;;;;;7.70;4.97;;;;;;;;;;10339001;28;20037;-62
2021/06/08 00:15:22;;;;;;;8.90;2.60;;;;;;;;;;10349528;28;20445;-62
2021/06/08 00:20:20;;;;;;;8.60;6.20;;;;;;;;;;10343814;28;20044;-62
2021/06/08 00:25:17;;;;;;;9.27;4.97;;;;;;;;;;10343787;28;20032;-62
2021/06/08 00:30:15;;;;;;;12.40;8.00;;;;;;;;;;10346273;28;20043;-62
2021/06/08 00:35:12;;;;;;;7.93;4.10;;;;;;;;;;10338056;28;20036;-62
2021/06/08 00:40:10;;;;;;;8.27;2.83;;;;;;;;;;10344205;28;20033;-61
2021/06/08 00:45:08;;;;;;;9.50;5.87;;;;;;;;;;10354280;28;20033;-62
2021/06/08 00:50:06;;;;;;;9.63;6.57;;;;;;;;;;10327313;28;20787;-62
2021/06/08 00:55:03;;;;;;;8.67;6.13;;;;;;;;;;10347583;28;20476;-62
2021/06/08 01:00:02;;;;;;;9.80;6.47;;;;;;;;;;10349599;28;20233;-62
2021/06/08 01:05:03;;;;;;;14.02;8.35;;;;;;;;;;10337686;28;20518;-62
2021/06/08 01:10:01;;;;;;;15.13;9.52;;;;;;;;;;10318644;28;20047;-61
2021/06/08 01:14:58;;;;;;;11.50;8.38;;;;;;;;;;10351198;28;20025;-62
2021/06/08 01:19:57;;;;;;;13.73;7.47;;;;;;;;;;10355583;28;20507;-61
2021/06/08 01:24:54;;;;;;;10.13;6.80;;;;;;;;;;10344360;28;20082;-62
2021/06/08 01:29:52;;;;;;;11.17;7.90;;;;;;;;;;10353947;28;20033;-62
2021/06/08 01:34:50;;;;;;;11.07;6.43;;;;;;;;;;10333124;28;20063;-61
2021/06/08 01:39:48;;;;;;;11.70;7.57;;;;;;;;;;10308835;28;20036;-62
2021/06/08 01:44:46;;;;;;;9.90;6.88;;;;;;;;;;10346459;28;20272;-62
2021/06/08 01:49:43;;;;;;;11.77;6.97;;;;;;;;;;10350123;28;20282;-61
2021/06/08 01:54:41;;;;;;;13.87;7.77;;;;;;;;;;10317813;28;20608;-62
2021/06/08 01:59:41;;;;;;;12.47;7.80;;;;;;;;;;10335079;28;20033;-62
2021/06/08 02:05:02;;;;;;;10.68;7.75;;;;;;;;;;10338628;28;20028;-62
2021/06/08 02:10:07;;;;;;;14.27;9.35;;;;;;;;;;10328587;28;20049;-61
2021/06/08 02:15:06;;;;;;;13.57;7.70;;;;;;;;;;10332740;28;20480;-62
2021/06/08 02:20:19;;;;;;;9.30;7.05;;;;;;;;;;10349543;28;20136;-61
2021/06/08 02:25:17;;;;;;;8.63;5.82;;;;;;;;;;10343309;28;20132;-62
2021/06/08 02:30:15;;;;;;;11.68;7.70;;;;;;;;;;10329074;28;20041;-62
2021/06/08 02:35:13;;;;;;;10.52;5.78;;;;;;;;;;10352301;28;20465;-62
2021/06/08 02:40:12;;;;;;;9.93;5.28;;;;;;;;;;10316417;28;20029;-62
2021/06/08 02:45:10;;;;;;;12.70;7.30;;;;;;;;;;10357886;28;20515;-62
2021/06/08 02:50:08;;;;;;;13.20;7.90;;;;;;;;;;10324067;28;20423;-62
2021/06/08 02:55:06;;;;;;;9.48;5.95;;;;;;;;;;10341129;28;20029;-62
2021/06/08 03:00:06;;;;;;;4.63;2.47;;;;;;;;;;10322966;28;20120;-62
2021/06/08 03:05:06;;;;;;;7.63;4.35;;;;;;;;;;10341550;28;20037;-61
2021/06/08 03:10:09;;;;;;;11.18;7.00;;;;;;;;;;10324213;28;20083;-62
2021/06/08 03:15:07;;;;;;;12.25;7.85;;;;;;;;;;10323188;28;20112;-62
2021/06/08 03:20:28;;;;;;;9.98;6.75;;;;;;;;;;10341446;28;20037;-61
2021/06/08 03:25:26;;;;;;;10.85;6.50;;;;;;;;;;10321710;28;20021;-62
2021/06/08 03:30:24;;;;;;;8.07;6.03;;;;;;;;;;10341194;28;20292;-62
2021/06/08 03:35:22;;;;;;;;;;;;;;;;;;10341035;28;20060;-61
2021/06/08 03:40:23;;;;;;;14.47;7.17;;;;;;;;;;10341637;28;20204;-62
2021/06/08 03:45:22;;;;;;;12.93;6.95;;;;;;;;;;10340124;28;20261;-61
2021/06/08 03:50:19;;;;;;;10.18;6.47;;;;;;;;;;10341723;28;20200;-60
2021/06/08 03:55:18;;;;;;;13.10;7.17;;;;;;;;;;10322907;28;20040;-62
2021/06/08 04:00:16;;;;;;;13.45;8.88;;;;;;;;;;10340114;28;20056;-62
2021/06/08 04:05:14;;;;;;;11.30;8.83;;;;;;;;;;10339966;28;20034;-62
2021/06/08 04:10:18;;;;;;;16.60;11.10;;;;;;;;;;10343194;28;20306;-61
2021/06/08 04:15:17;;;;;;;3.53;2.17;;;;;;;;;;10318354;28;20534;-65
2021/06/08 04:20:14;;;;;;;2.47;1.40;;;;;;;;;;10331959;28;20060;-65
2021/06/08 04:25:13;;;;;;;5.97;2.57;;;;;;;;;;10336830;28;20132;-66
2021/06/08 04:30:11;;;;;;;3.20;2.30;;;;;;;;;;10335794;28;20394;-64
2021/06/08 04:35:09;;;;;;;3.95;2.67;;;;;;;;;;10336223;28;20025;-65
2021/06/08 04:40:08;;;;;;;1.13;1.00;;;;;;;;;;10338228;28;20025;-64
2021/06/08 04:45:06;;;;;;;6.45;3.15;;;;;;;;;;10338444;28;20040;-67
2021/06/08 04:50:04;;;;;;;2.53;1.57;;;;;;;;;;10331485;28;20027;-64
2021/06/08 04:55:01;;;;;;;5.32;3.20;;;;;;;;;;10337656;28;20488;-64
2021/06/08 05:00:02;;;;;;;4.90;2.63;;;;;;;;;;10334436;28;20414;-66
2021/06/08 05:05:04;;;;;;;2.20;1.95;;;;;;;;;;10334548;28;20037;-64
2021/06/08 05:10:03;;;;;;;4.22;2.50;;;;;;;;;;10336276;28;20017;-66
2021/06/08 05:15:01;;;;;;;3.60;2.45;;;;;;;;;;10328425;28;20160;-65
2021/06/08 05:19:59;;;;;;;8.70;3.40;;;;;;;;;;10316060;28;20438;-67
2021/06/08 05:24:56;;;;;;;8.07;3.20;;;;;;;;;;10333089;28;20095;-65
2021/06/08 05:29:56;;;;;;;2.43;1.77;;;;;;;;;;10314267;28;20472;-65
2021/06/08 05:34:54;;;;;;;3.58;2.40;;;;;;;;;;10310707;28;20044;-65
2021/06/08 05:39:51;;;;;;;6.37;3.03;;;;;;;;;;10332636;28;20475;-65
2021/06/08 05:44:51;;;;;;;3.33;2.20;;;;;;;;;;10331449;28;20037;-65
2021/06/08 05:49:49;;;;;;;2.05;1.30;;;;;;;;;;10334700;28;20044;-65
2021/06/08 05:54:47;;;;;;;1.60;1.30;;;;;;;;;;10357031;22;20056;-67
2021/06/08 05:59:44;;;;;;;3.22;1.35;;;;;;;;;;10352396;28;20067;-66
2021/06/08 06:04:43;;;;;;;6.67;1.93;;;;;;;;;;10331977;28;20047;-67
2021/06/08 06:09:40;;;;;;;6.25;2.67;;;;;;;;;;10310084;28;20037;-69
2021/06/08 06:14:38;;;;;;;3.07;2.20;;;;;;;;;;10328943;28;20036;-67
2021/06/08 06:19:36;;;;;;;5.60;3.15;;;;;;;;;;10351739;28;20632;-67
2021/06/08 06:29:40;;;;;;;3.85;2.83;;;;;;;;;;10221364;28;20045;-65
2021/06/08 06:34:37;;;;;;;7.95;3.80;;;;;;;;;;10266334;28;20045;-66
2021/06/08 06:39:35;;;;;;;1.23;1.03;;;;;;;;;;10282493;28;20049;-65
2021/06/08 06:44:33;;;;;;;4.45;2.47;;;;;;;;;;10276430;28;20041;-66
2021/06/08 06:49:30;;;;;;;;;;;;;;;;;;10256379;28;20053;-65
2021/06/08 06:54:30;;;;;;;5.10;3.13;;;;;;;;;;10248796;28;20423;-64
2021/06/08 06:59:27;;;;;;;5.50;2.53;;;;;;;;;;10257484;28;20038;-65
2021/06/08 07:04:25;;;;;;;0.77;0.50;;;;;;;;;;10257581;28;20053;-66
2021/06/08 07:09:23;;;;;;;;;;;;;;;;;;10263543;28;20276;-65
2021/06/08 07:14:21;;;;;;;5.77;2.90;;;;;;;;;;10251906;28;19944;-64
2021/06/08 07:19:19;;;;;;;;;;;;;;;;;;10257351;28;20068;-65
2021/06/08 07:24:16;;;;;;;6.20;3.05;;;;;;;;;;10257860;28;19975;-64
2021/06/08 07:29:14;;;;;;;;;;;;;;;;;;10251389;28;20045;-64
2021/06/08 07:34:14;;;;;;;4.57;2.40;;;;;;;;;;10252471;28;19925;-64
2021/06/08 07:39:21;;;;;;;3.60;1.73;;;;;;;;;;10257086;28;20195;-65
2021/06/08 07:44:22;;;;;;;0.60;0.45;;;;;;;;;;10261892;28;21349;-65
2021/06/08 07:49:21;;;;;;;1.05;0.85;;;;;;;;;;10266085;28;20040;-66
2021/06/08 07:54:21;;;;;;;4.57;1.30;;;;;;;;;;10286864;28;20590;-65
2021/06/08 07:59:19;;;;;;;0.98;0.80;;;;;;;;;;10280782;28;20511;-65
2021/06/08 08:04:22;;;;;;;1.65;1.02;;;;;;;;;;10262639;28;20044;-64
2021/06/08 08:09:20;;;;;;;5.22;1.60;;;;;;;;;;10275659;28;20049;-66
2021/06/08 08:14:20;;;;;;;1.52;0.77;;;;;;;;;;10270540;28;20511;-64
2021/06/08 08:19:19;;;;;;;0.98;0.90;;;;;;;;;;10270419;28;20183;-64
2021/06/08 08:24:17;;;;;;;2.45;1.48;;;;;;;;;;10285011;28;20033;-65
2021/06/08 08:29:14;;;;;;;1.15;1.05;;;;;;;;;;10274303;28;20056;-64
2021/06/08 08:34:12;;;;;;;2.15;1.05;;;;;;;;;;10275459;28;20068;-66
2021/06/08 08:39:10;;;;;;;5.25;3.58;;;;;;;;;;10280778;28;20033;-67
2021/06/08 08:44:08;;;;;;;6.10;3.22;;;;;;;;;;10284279;28;20111;-66
2021/06/08 08:49:06;;;;;;;5.78;3.47;;;;;;;;;;10290506;28;20082;-65
2021/06/08 08:54:04;;;;;;;6.90;4.70;;;;;;;;;;10281926;28;20038;-65
2021/06/08 08:59:10;;;;;;;7.97;3.20;;;;;;;;;;10282625;28;20557;-64
2021/06/08 09:04:08;;;;;;;6.88;4.80;;;;;;;;;;10272830;28;20037;-67
2021/06/08 09:09:07;;;;;;;7.22;4.75;;;;;;;;;;10275367;28;20033;-66
2021/06/08 09:14:05;;;;;;;6.65;4.07;;;;;;;;;;10286874;28;20041;-66
2021/06/08 09:19:06;;;;;;;7.63;3.35;;;;;;;;;;10284461;28;20037;-66
2021/06/08 09:24:23;;;;;;;6.40;3.72;;;;;;;;;;10278043;28;20045;-66
2021/06/08 09:29:26;;;;;;;7.97;3.90;;;;;;;;;;10265050;28;20041;-66
2021/06/08 09:34:32;;;;;;;6.05;3.72;;;;;;;;;;10288108;28;20411;-66
2021/06/08 09:39:30;;;;;;;8.98;4.22;;;;;;;;;;10285257;28;20053;-66
2021/06/08 09:44:27;;;;;;;2.40;1.92;;;;;;;;;;10286946;28;20628;-66
2021/06/08 09:49:31;;;;;;;4.15;2.28;;;;;;;;;;10278851;28;20502;-66
2021/06/08 09:54:38;;;;;;;2.70;1.95;;;;;;;;;;10272906;28;20057;-66
2021/06/08 09:59:40;;;;;;;4.63;2.65;;;;;;;;;;10288918;28;20075;-64
2021/06/08 10:04:37;;;;;;;5.97;3.22;;;;;;;;;;10290673;28;20041;-66
2021/06/08 10:09:34;;;;;;;2.73;2.33;;;;;;;;;;10293834;28;20037;-65
2021/06/08 10:14:38;;;;;;;4.13;2.60;;;;;;;;;;10285674;28;20131;-64
2021/06/08 10:19:35;;;;;;;2.45;2.25;;;;;;;;;;10269714;28;20041;-65
2021/06/08 10:24:33;;;;;;;5.63;3.43;;;;;;;;;;10274674;28;20450;-63
2021/06/08 10:29:31;;;;;;;1.37;0.97;;;;;;;;;;10269456;28;20041;-65
2021/06/08 10:34:29;;;;;;;3.30;1.65;;;;;;;;;;10293365;28;20288;-65
2021/06/08 10:39:29;;;;;;;1.92;1.23;;;;;;;;;;10270838;28;20072;-65
2021/06/08 10:44:28;;;;;;;1.85;0.80;;;;;;;;;;10292227;28;20038;-65
2021/06/08 10:49:33;;;;;;;8.00;1.98;;;;;;;;;;10257244;28;20037;-65
2021/06/08 10:54:36;;;;;;;1.67;1.13;;;;;;;;;;10289366;28;20081;-66
2021/06/08 10:59:38;;;;;;;4.50;1.33;;;;;;;;;;10273765;28;20117;-65
2021/06/08 11:04:54;;;;;;;0.98;0.95;;;;;;;;;;10268405;28;20129;-66
2021/06/08 11:09:51;;;;;;;5.90;2.08;;;;;;;;;;10250822;28;20052;-66
2021/06/08 11:14:57;;;;;;;3.67;2.23;;;;;;;;;;10251463;28;20052;-66
2021/06/08 11:19:59;;;;;;;3.65;2.25;;;;;;;;;;10267133;28;20040;-65
2021/06/08 11:24:56;;;;;;;2.90;1.38;;;;;;;;;;10292791;28;20053;-64
2021/06/08 11:29:55;;;;;;;2.17;1.50;;;;;;;;;;10277362;28;20043;-64
2021/06/08 11:35:05;;;;;;;5.25;1.90;;;;;;;;;;10291145;28;20287;-64
2021/06/08 11:40:21;;;;;;;4.10;2.67;;;;;;;;;;10270083;28;20120;-64
2021/06/08 11:45:25;;;;;;;3.20;2.00;;;;;;;;;;10283047;28;20407;-65
2021/06/08 11:50:38;;;;;;;4.40;2.60;;;;;;;;;;10281295;28;20124;-63
2021/06/08 11:55:36;;;;;;;2.47;2.25;;;;;;;;;;10290719;28;20121;-63
2021/06/08 12:00:50;;;;;;;4.47;3.10;;;;;;;;;;10289879;28;20141;-63
2021/06/08 12:05:47;;;;;;;3.55;2.45;;;;;;;;;;10288708;28;20518;-64
2021/06/08 12:10:44;;;;;;;3.37;2.70;;;;;;;;;;10290854;28;20063;-63
2021/06/08 12:15:46;;;;;;;4.20;2.70;;;;;;;;;;10284540;28;20387;-64
2021/06/08 12:20:44;;;;;;;5.18;2.38;;;;;;;;;;10271695;28;20041;-64
2021/06/08 12:25:41;;;;;;;4.07;2.30;;;;;;;;;;10286556;28;20050;-64
2021/06/08 12:30:39;;;;;;;3.50;1.90;;;;;;;;;;10272139;28;20581;-64
2021/06/08 12:35:42;;;;;;;2.97;2.20;;;;;;;;;;10300223;28;20041;-64
2021/06/08 12:40:40;;;;;;;2.47;1.80;;;;;;;;;;10275863;28;20538;-64
2021/06/08 12:45:37;;;;;;;2.72;1.60;;;;;;;;;;10277232;28;20033;-64
2021/06/08 12:50:35;;;;;;;3.13;2.20;;;;;;;;;;10270830;28;20033;-64
2021/06/08 12:55:33;;;;;;;2.95;1.58;;;;;;;;;;10298873;28;20280;-63
2021/06/08 13:00:32;;;;;;;3.33;2.30;;;;;;;;;;10292339;28;20046;-64
2021/06/08 13:05:31;;;;;;;3.72;1.55;;;;;;;;;;10284850;28;20041;-64
2021/06/08 13:10:31;;;;;;;1.67;1.50;;;;;;;;;;10284693;28;20045;-62
2021/06/08 13:15:30;;;;;;;3.17;1.30;;;;;;;;;;10286523;28;20136;-64
2021/06/08 13:20:29;;;;;;;0.98;0.98;;;;;;;;;;10278123;28;20531;-64
2021/06/08 13:25:26;;;;;;;0.75;0.55;;;;;;;;;;10288089;28;20040;-63
2021/06/08 13:30:26;;;;;;;0.50;0.50;;;;;;;;;;10279220;28;20040;-66
2021/06/08 13:35:26;;;;;;;1.58;0.60;;;;;;;;;;10294016;28;20124;-64
2021/06/08 13:40:31;;;;;;;0.68;0.40;;;;;;;;;;10284360;28;20061;-63
2021/06/08 13:45:32;;;;;;;0.65;0.65;;;;;;;;;;10277232;28;20045;-63
2021/06/08 13:50:29;;;;;;;1.02;0.98;;;;;;;;;;10247712;28;20048;-65
2021/06/08 13:55:36;;;;;;;1.47;0.80;;;;;;;;;;10267234;28;20411;-64
2021/06/08 14:00:33;;;;;;;;;;;;;;;;;;10263020;28;20042;-64
2021/06/08 14:05:31;;;;;;;2.00;1.05;;;;;;;;;;10277857;28;19927;-63
2021/06/08 14:10:29;;;;;;;1.38;1.27;;;;;;;;;;10279407;28;20166;-64
2021/06/08 14:15:26;;;;;;;3.67;1.58;;;;;;;;;;10281462;28;20025;-63
2021/06/08 14:20:24;;;;;;;1.43;1.10;;;;;;;;;;10283104;28;20033;-64
2021/06/08 14:25:21;;;;;;;1.05;0.90;;;;;;;;;;10280719;28;20695;-67
2021/06/08 14:30:19;;;;;;;1.77;1.10;;;;;;;;;;10255957;28;20042;-63
2021/06/08 14:35:17;;;;;;;1.45;0.93;;;;;;;;;;10284813;28;20346;-63
2021/06/08 14:40:14;;;;;;;1.08;0.70;;;;;;;;;;10263343;28;20026;-64
2021/06/08 14:45:12;;;;;;;0.75;0.75;;;;;;;;;;10270422;28;20030;-64
2021/06/08 14:50:09;;;;;;;0.82;0.80;;;;;;;;;;10291664;28;20053;-63
2021/06/08 14:55:07;;;;;;;1.40;1.17;;;;;;;;;;10262530;28;20779;-64
2021/06/08 15:00:05;;;;;;;1.33;1.20;;;;;;;;;;10277870;28;20980;-64
2021/06/08 15:05:03;;;;;;;3.47;1.35;;;;;;;;;;10270755;28;20389;-63
2021/06/08 15:10:01;;;;;;;2.40;1.80;;;;;;;;;;10293979;28;20036;-63
2021/06/08 15:14:58;;;;;;;3.67;1.55;;;;;;;;;;10274210;28;20044;-63
2021/06/08 15:19:58;;;;;;;0.88;0.82;;;;;;;;;;10291454;28;20033;-65
2021/06/08 15:24:56;;;;;;;2.00;1.35;;;;;;;;;;10282529;28;20064;-63
2021/06/08 15:29:53;;;;;;;2.43;1.70;;;;;;;;;;10298807;28;20053;-64
2021/06/08 15:34:50;;;;;;;3.30;1.30;;;;;;;;;;10288705;28;20419;-64
2021/06/08 15:39:48;;;;;;;2.83;1.20;;;;;;;;;;10273515;28;20081;-63
2021/06/08 15:44:45;;;;;;;1.60;1.20;;;;;;;;;;10276030;28;20042;-64
2021/06/08 15:49:44;;;;;;;2.90;1.17;;;;;;;;;;10260982;28;20041;-65
2021/06/08 15:54:41;;;;;;;1.63;1.02;;;;;;;;;;10246906;28;20049;-63
2021/06/08 15:59:39;;;;;;;1.33;1.20;;;;;;;;;;10278292;28;20042;-63
2021/06/08 16:04:36;;;;;;;0.55;0.55;;;;;;;;;;10286351;28;20585;-62
2021/06/08 16:09:34;;;;;;;0.77;0.40;;;;;;;;;;10259247;28;20069;-62
2021/06/08 16:14:31;;;;;;;1.30;0.90;;;;;;;;;;10280689;28;20041;-63
2021/06/08 16:19:29;;;;;;;2.22;1.20;;;;;;;;;;10287840;28;20499;-62
2021/06/08 16:24:26;;;;;;;1.97;0.90;;;;;;;;;;10275411;28;20033;-62
2021/06/08 16:29:24;;;;;;;0.73;0.63;;;;;;;;;;10276034;28;20765;-62
2021/06/08 16:34:21;;;;;;;1.10;1.00;;;;;;;;;;10293488;28;20033;-62
2021/06/08 16:39:19;;;;;;;1.63;0.90;;;;;;;;;;10285166;28;20033;-63
2021/06/08 16:44:16;;;;;;;0.75;0.75;;;;;;;;;;10270201;28;20281;-62
2021/06/08 16:49:16;;;;;;;0.70;0.60;;;;;;;;;;10275464;28;20557;-63
2021/06/08 16:54:13;;;;;;;1.48;0.63;;;;;;;;;;10265924;28;20557;-63
2021/06/08 16:59:10;;;;;;;1.05;0.60;;;;;;;;;;10287569;28;20060;-63
2021/06/08 17:04:08;;;;;;;1.63;0.65;;;;;;;;;;10274282;28;20454;-62
2021/06/08 17:09:07;;;;;;;2.33;0.70;;;;;;;;;;10272240;28;20033;-62
2021/06/08 17:14:04;;;;;;;3.80;0.68;;;;;;;;;;10269036;28;20041;-64
2021/06/08 17:19:03;;;;;;;0.50;0.50;;;;;;;;;;10284178;28;20510;-62
2021/06/08 17:24:00;;;;;;;1.38;0.50;;;;;;;;;;10274146;28;20041;-62
2021/06/08 17:28:58;;;;;;;1.25;0.40;;;;;;;;;;10277833;28;20045;-62
2021/06/08 17:33:55;;;;;;;0.63;0.30;;;;;;;;;;10259004;28;20503;-63
2021/06/08 17:38:53;;;;;;;0.63;0.50;;;;;;;;;;10273322;28;20096;-62
2021/06/08 17:43:50;;;;;;;1.50;0.43;;;;;;;;;;10281761;28;20037;-63
2021/06/08 17:48:48;;;;;;;0.25;0.25;;;;;;;;;;10269691;28;21003;-63
2021/06/08 17:53:45;;;;;;;0.30;0.30;;;;;;;;;;10270301;28;20033;-63
2021/06/08 17:58:43;;;;;;;0.32;0.32;;;;;;;;;;10269966;28;20073;-63
2021/06/08 18:03:40;;;;;;;0.43;0.43;;;;;;;;;;10275936;28;20034;-64
2021/06/08 18:08:38;;;;;;;0.30;0.30;;;;;;;;;;10262039;28;20048;-63
2021/06/08 18:13:35;;;;;;;0.00;0.00;;;;;;;;;;10259748;28;20315;-63
2021/06/08 18:18:39;;;;;;;1.60;0.20;;;;;;;;;;10235980;28;20288;-63
2021/06/08 18:23:37;;;;;;;0.35;0.30;;;;;;;;;;10269961;28;20362;-63
2021/06/08 18:28:35;;;;;;;0.17;0.17;;;;;;;;;;10239951;28;20049;-63
2021/06/08 18:33:32;;;;;;;1.40;0.50;;;;;;;;;;10271989;28;20054;-63
2021/06/08 18:38:29;;;;;;;0.67;0.40;;;;;;;;;;10275983;28;20052;-64
2021/06/08 18:43:29;;;;;;;0.43;0.43;;;;;;;;;;10273085;28;20122;-63
2021/06/08 18:48:26;;;;;;;0.30;0.28;;;;;;;;;;10263043;28;20102;-63
2021/06/08 18:53:24;;;;;;;0.10;0.10;;;;;;;;;;10269115;28;20042;-62
2021/06/08 18:58:22;;;;;;;0.55;0.13;;;;;;;;;;10276864;28;20030;-62
2021/06/08 19:03:19;;;;;;;0.10;0.10;;;;;;;;;;10253802;28;20415;-62
2021/06/08 19:08:16;;;;;;;0.30;0.20;;;;;;;;;;10275216;28;20081;-63
2021/06/08 19:13:14;;;;;;;0.20;0.10;;;;;;;;;;10269771;28;20080;-63
2021/06/08 19:18:14;;;;;;;0.43;0.15;;;;;;;;;;10280155;28;20868;-62
2021/06/08 19:23:11;;;;;;;0.90;0.50;;;;;;;;;;10266900;28;20044;-63
2021/06/08 19:28:09;;;;;;;1.38;0.20;;;;;;;;;;10267876;28;20030;-63
2021/06/08 19:33:06;;;;;;;1.70;0.60;;;;;;;;;;10280717;28;20411;-62
2021/06/08 19:38:04;;;;;;;0.63;0.30;;;;;;;;;;10257746;28;20052;-62
2021/06/08 19:43:01;;;;;;;0.08;0.08;;;;;;;;;;10284246;28;20883;-63
2021/06/08 19:47:59;;;;;;;0.37;0.37;;;;;;;;;;10280716;28;20470;-63
2021/06/08 19:52:56;;;;;;;0.33;0.33;;;;;;;;;;10287128;28;20045;-63
2021/06/08 19:57:56;;;;;;;2.50;0.70;;;;;;;;;;10259955;28;20037;-63
2021/06/08 20:02:53;;;;;;;1.55;0.30;;;;;;;;;;10291668;28;20037;-63
2021/06/08 20:07:51;;;;;;;0.98;0.10;;;;;;;;;;10272198;28;20096;-63
2021/06/08 20:12:50;;;;;;;0.10;0.10;;;;;;;;;;10258048;28;20052;-62
2021/06/08 20:17:48;;;;;;;1.60;0.95;;;;;;;;;;10285239;28;20037;-63
2021/06/08 20:22:46;;;;;;;2.67;1.40;;;;;;;;;;10290326;28;20040;-63
2021/06/08 20:27:44;;;;;;;1.42;0.77;;;;;;;;;;10273835;28;20043;-64
2021/06/08 20:32:41;;;;;;;2.95;0.75;;;;;;;;;;10271296;28;20038;-64
2021/06/08 20:37:38;;;;;;;;;;;;;;;;;;10274379;28;20030;-63
2021/06/08 20:42:37;;;;;;;0.80;0.80;;;;;;;;;;10286800;28;19916;-62
2021/06/08 20:47:34;;;;;;;2.22;0.80;;;;;;;;;;10253214;28;20063;-63
2021/06/08 20:52:31;;;;;;;;;;;;;;;;;;10273140;28;20046;-63
2021/06/08 20:57:29;;;;;;;2.63;0.90;;;;;;;;;;10271251;28;20279;-64
2021/06/08 21:02:26;;;;;;;;;;;;;;;;;;10264931;28;20041;-62
2021/06/08 21:07:24;;;;;;;2.50;0.82;;;;;;;;;;10273383;28;19921;-63
2021/06/08 21:12:22;;;;;;;;;;;;;;;;;;10254918;28;20300;-62
2021/06/08 21:17:20;;;;;;;2.33;0.75;;;;;;;;;;10284431;28;19913;-63
2021/06/08 21:22:17;;;;;;;1.83;0.97;;;;;;;;;;10271908;28;20038;-63
2021/06/08 21:27:16;;;;;;;1.40;1.27;;;;;;;;;;10276914;28;20293;-62
2021/06/08 21:32:13;;;;;;;3.15;1.20;;;;;;;;;;10279018;28;21417;-62
2021/06/08 21:37:11;;;;;;;3.80;1.23;;;;;;;;;;10243138;28;20406;-62
2021/06/08 21:42:10;;;;;;;2.70;1.20;;;;;;;;;;10280810;28;20399;-64
2021/06/08 21:47:08;;;;;;;4.03;1.60;;;;;;;;;;10267343;28;20665;-62
2021/06/08 21:52:05;;;;;;;1.53;1.40;;;;;;;;;;10246983;28;20060;-62
2021/06/08 21:57:03;;;;;;;2.27;1.10;;;;;;;;;;10281198;28;20025;-62
2021/06/08 22:02:00;;;;;;;4.90;1.50;;;;;;;;;;10286632;28;20040;-62
2021/06/08 22:06:58;;;;;;;2.07;1.50;;;;;;;;;;10273843;28;20041;-62
2021/06/08 22:11:55;;;;;;;1.73;1.45;;;;;;;;;;10268637;28;20132;-63
2021/06/08 22:16:53;;;;;;;1.70;1.17;;;;;;;;;;10243665;28;20826;-63
2021/06/08 22:21:50;;;;;;;1.63;1.33;;;;;;;;;;10280427;28;20037;-62
2021/06/08 22:26:48;;;;;;;2.10;1.10;;;;;;;;;;10271739;28;20038;-62
2021/06/08 22:31:45;;;;;;;1.27;1.05;;;;;;;;;;10284278;28;20049;-62
2021/06/08 22:36:44;;;;;;;1.17;0.97;;;;;;;;;;10268426;28;20037;-62
2021/06/08 22:41:41;;;;;;;1.92;1.50;;;;;;;;;;10276230;28;20110;-63
2021/06/08 22:46:39;;;;;;;2.27;1.17;;;;;;;;;;10275338;28;20621;-64
2021/06/08 22:51:36;;;;;;;1.13;1.03;;;;;;;;;;10283405;28;20044;-63
2021/06/08 22:56:33;;;;;;;6.60;1.50;;;;;;;;;;10291019;28;20049;-63
2021/06/08 23:01:38;;;;;;;2.40;1.43;;;;;;;;;;10288754;28;20045;-62
2021/06/08 23:06:36;;;;;;;1.67;1.50;;;;;;;;;;10293858;28;20040;-63
2021/06/08 23:11:33;;;;;;;1.70;1.50;;;;;;;;;;10282969;28;20057;-61
2021/06/08 23:16:31;;;;;;;6.10;1.50;;;;;;;;;;10282807;28;20033;-62
2021/06/08 23:21:28;;;;;;;4.05;1.50;;;;;;;;;;10290664;28;20095;-62
2021/06/08 23:26:30;;;;;;;2.00;1.53;;;;;;;;;;10278710;28;20061;-61
2021/06/08 23:31:28;;;;;;;3.17;1.40;;;;;;;;;;10300000;28;20041;-62
2021/06/08 23:36:25;;;;;;;3.53;1.80;;;;;;;;;;10293661;28;20116;-63
2021/06/08 23:41:23;;;;;;;1.33;1.23;;;;;;;;;;10273476;28;20129;-61
2021/06/08 23:46:20;;;;;;;4.20;1.63;;;;;;;;;;10286165;28;20041;-60
2021/06/08 23:51:17;;;;;;;2.57;1.40;;;;;;;;;;10291959;28;20037;-61
2021/06/08 23:56:15;;;;;;;3.03;1.60;;;;;;;;;;10269072;28;20025;-61
